Time;durP1;ratioP1;P1;durP2;ratioP2;P2;SDS_P1;SDS_P2;PMS_P1;PMS_P2;Temp;Humidity;BMP_temperature;BMP_pressure;BME280_temperature;BME280_humidity;BME280_pressure;Samples;Min_cycle;Max_cycle;Signal;HPM_P1;HPM_P2
2021/10/04 00:55:20;92084.00;0.31;159.91;0.00;0.00;0.62;;;;;19.60;1.00;;;;;;2270298;61;1327;-86
2021/10/04 02:09:14;213882.00;0.71;369.82;0.00;0.00;0.62;;;;;19.80;1.00;;;;;;2271367;61;905;-86
2021/10/04 02:16:37;231104.00;0.77;399.45;0.00;0.00;0.62;;;;;19.60;1.00;;;;;;2270932;61;1304;-85
2021/10/04 02:28:59;158692.00;0.53;274.79;0.00;0.00;0.62;;;;;20.20;1.00;;;;;;2270935;61;914;-86
2021/10/04 02:36:24;66725.00;0.22;116.10;0.00;0.00;0.62;;;;;19.90;1.00;;;;;;2267236;61;1297;-86
2021/10/04 02:53:39;101827.00;0.34;176.73;0.00;0.00;0.62;;;;;20.00;1.00;;;;;;2263553;61;1349;-87
2021/10/04 04:05:08;27282.00;0.09;47.88;0.00;0.00;0.62;;;;;19.60;1.00;;;;;;2266496;61;909;-87
2021/10/04 04:10:04;11172.00;0.04;19.98;0.00;0.00;0.62;;;;;19.80;1.00;;;;;;2266758;61;1335;-89
2021/10/04 05:56:09;23058.00;0.08;40.57;0.00;0.00;0.62;;;;;19.90;1.00;;;;;;2266667;61;874;-88
2021/10/04 06:35:43;12139.00;0.04;21.65;0.00;0.00;0.62;;;;;19.30;1.00;;;;;;2271123;61;909;-87
2021/10/04 07:11:45;633704.00;2.11;1092.45;42060.00;0.14;73.45;;;;;18.80;1.00;;;;;;2270011;61;1340;-89
2021/10/04 07:14:12;277525.00;0.93;479.28;0.00;0.00;0.62;;;;;18.70;1.00;;;;;;2268564;61;910;-89
2021/10/04 07:16:39;901052.00;3.00;1557.97;86759.00;0.29;150.71;;;;;18.80;1.00;;;;;;2259933;61;1091;-88
2021/10/04 07:19:06;1137178.00;3.79;1977.04;3563.00;0.01;6.80;;;;;18.80;1.00;;;;;;2260040;61;1064;-89
2021/10/04 07:21:34;1676920.00;5.59;2980.67;43666.00;0.15;76.23;;;;;19.10;1.00;;;;;;2259965;61;1269;-89
2021/10/04 07:24:01;2340108.00;7.80;4347.67;224307.00;0.75;387.75;;;;;19.30;1.00;;;;;;2260003;61;1096;-88
2021/10/04 07:26:30;1592364.00;5.31;2818.15;109613.00;0.37;190.16;;;;;19.20;1.00;;;;;;2259965;61;2002;-89
2021/10/04 07:29:00;1000396.00;3.33;1733.17;99862.00;0.33;173.33;;;;;19.20;1.00;;;;;;2259957;61;1108;-89
2021/10/04 07:31:28;562246.00;1.87;969.07;91307.00;0.30;158.56;;;;;19.20;1.00;;;;;;2259853;61;1381;-89
2021/10/04 07:33:55;383266.00;1.28;661.04;0.00;0.00;0.62;;;;;19.40;1.00;;;;;;2261236;61;1256;-90
2021/10/04 07:36:22;771617.00;2.57;1331.67;0.00;0.00;0.62;;;;;19.60;1.00;;;;;;2268130;61;1116;-89
2021/10/04 07:38:49;428078.00;1.43;738.08;2960.00;0.01;5.75;;;;;19.60;1.00;;;;;;2268203;61;1575;-89
2021/10/04 07:41:16;563438.00;1.88;971.13;53373.00;0.18;93.02;;;;;20.00;1.00;;;;;;2268299;61;1389;-89
2021/10/04 07:43:43;206818.00;0.69;357.66;0.00;0.00;0.62;;;;;20.10;1.00;;;;;;2268126;61;1569;-90
2021/10/04 07:46:11;449380.00;1.50;774.72;0.00;0.00;0.62;;;;;20.30;1.00;;;;;;2268230;61;1910;-89
2021/10/04 07:48:38;633957.00;2.11;1092.89;116366.00;0.39;201.81;;;;;20.20;1.00;;;;;;2268292;61;1054;-88
2021/10/04 07:51:07;398761.00;1.33;687.68;73405.00;0.24;127.64;;;;;19.60;1.00;;;;;;2268346;61;1317;-89
2021/10/04 07:53:36;160880.00;0.54;278.56;0.00;0.00;0.62;;;;;19.50;1.00;;;;;;2268402;61;1095;-90
2021/10/04 07:56:04;232686.00;0.78;402.17;0.00;0.00;0.62;;;;;19.30;1.00;;;;;;2259769;61;991;-89
2021/10/04 07:58:31;1004452.00;3.35;1740.36;39863.00;0.13;69.65;;;;;19.10;1.00;;;;;;2259823;61;1072;-88
2021/10/04 08:00:58;254775.00;0.85;440.16;0.00;0.00;0.62;;;;;19.40;1.00;;;;;;2251719;61;1310;-90
2021/10/04 08:03:26;227162.00;0.76;392.67;0.00;0.00;0.62;;;;;19.50;1.00;;;;;;2251717;61;1031;-89
2021/10/04 08:05:53;656192.00;2.19;1131.35;0.00;0.00;0.62;;;;;19.90;1.00;;;;;;2251828;61;2018;-89
2021/10/04 08:08:20;397170.00;1.32;684.94;79206.00;0.26;137.67;;;;;19.60;1.00;;;;;;2251856;61;1071;-89
2021/10/04 08:10:47;354773.00;1.18;612.06;0.00;0.00;0.62;;;;;19.60;1.00;;;;;;2251774;61;1363;-90
2021/10/04 08:13:14;234158.00;0.78;404.70;0.00;0.00;0.62;;;;;19.60;1.00;;;;;;2252321;61;1058;-89
2021/10/04 08:15:41;117281768.00;390.94;65345992.00;0.00;0.00;0.62;;;;;19.50;1.00;;;;;;2255847;61;977;-90
2021/10/04 08:18:08;247387.00;0.82;427.46;0.00;0.00;0.62;;;;;19.60;1.00;;;;;;2257285;61;1616;-90
2021/10/04 08:20:37;372662.00;1.24;642.81;4737.00;0.02;8.83;;;;;19.90;1.00;;;;;;2268015;61;1263;-90
2021/10/04 08:23:04;1403766.00;4.68;2463.31;64600.00;0.22;112.43;;;;;20.00;1.00;;;;;;2268363;61;954;-89
2021/10/04 08:25:32;694898.00;2.32;1198.39;179994.00;0.60;311.48;;;;;19.90;1.00;;;;;;2268278;61;1143;-89
2021/10/04 08:27:59;295119.00;0.98;509.53;0.00;0.00;0.62;;;;;19.60;1.00;;;;;;2268306;61;2009;-89
2021/10/04 08:30:26;333576.00;1.11;575.63;0.00;0.00;0.62;;;;;19.80;1.00;;;;;;2268215;61;1037;-88
2021/10/04 08:32:53;1114687.00;3.72;1936.71;37459.00;0.12;65.49;;;;;20.10;1.00;;;;;;2268200;61;1380;-89
2021/10/04 08:35:20;522162.00;1.74;899.99;91917.00;0.31;159.62;;;;;20.10;1.00;;;;;;2268200;61;1589;-89
2021/10/04 08:37:49;309922.00;1.03;534.98;0.00;0.00;0.62;;;;;19.90;1.00;;;;;;2268315;61;1044;-90
2021/10/04 08:40:17;240688.00;0.80;415.93;0.00;0.00;0.62;;;;;20.30;1.00;;;;;;2268242;61;1024;-89
2021/10/04 08:42:45;943199.00;3.14;1632.12;45409.00;0.15;79.25;;;;;20.20;1.00;;;;;;2268234;61;1547;-90
2021/10/04 08:45:13;1734495.00;5.78;3092.65;254810.00;0.85;440.22;;;;;20.40;1.00;;;;;;2268252;61;1123;-88
2021/10/04 08:47:41;1242376.00;4.14;2167.03;145862.00;0.49;252.68;;;;;20.50;1.00;;;;;;2268231;61;1988;-90
2021/10/04 08:50:13;388586.00;1.30;670.18;82853.00;0.28;143.97;;;;;20.10;1.00;;;;;;2268199;61;1570;-89
2021/10/04 08:52:41;456357.00;1.52;786.72;88491.00;0.29;153.70;;;;;20.30;1.00;;;;;;2268163;61;1730;-89
2021/10/04 08:55:10;360586.00;1.20;622.06;0.00;0.00;0.62;;;;;20.40;1.00;;;;;;2268206;61;1075;-89
2021/10/04 08:57:37;396807.00;1.32;684.32;0.00;0.00;0.62;;;;;20.40;1.00;;;;;;2268203;61;1091;-89
2021/10/04 09:00:08;271774.00;0.91;469.39;0.00;0.00;0.62;;;;;20.50;1.00;;;;;;2268181;61;1653;-89
2021/10/04 09:02:36;742762.00;2.48;1281.47;29770.00;0.10;52.18;;;;;20.70;1.00;;;;;;2268243;61;1486;-89
2021/10/04 09:05:23;1835695.00;6.12;3292.23;251842.00;0.84;435.12;;;;;20.70;1.00;;;;;;2268245;61;1343;-89
2021/10/04 09:07:52;883441.00;2.94;1527.06;47305.00;0.16;82.53;;;;;20.00;1.00;;;;;;2268132;61;2006;-89
2021/10/04 09:10:24;2274751.00;7.58;4204.59;231839.00;0.77;400.71;;;;;20.00;1.00;;;;;;2268071;61;1470;-89
2021/10/04 09:12:54;2719272.00;9.06;5221.01;307525.00;1.03;530.86;;;;;20.20;1.00;;;;;;2268185;61;1436;-89
2021/10/04 09:15:23;1512787.00;5.04;2667.20;260475.00;0.87;449.97;;;;;20.50;1.00;;;;;;2268166;61;1146;-89
2021/10/04 09:17:51;516699.00;1.72;890.58;63883.00;0.21;111.19;;;;;20.80;1.00;;;;;;2268139;61;1030;-91
2021/10/04 09:20:19;479723.00;1.60;826.92;84363.00;0.28;146.57;;;;;20.80;1.00;;;;;;2268181;61;925;-89
2021/10/04 09:22:46;310781.00;1.04;536.45;0.00;0.00;0.62;;;;;20.50;1.00;;;;;;2268010;61;1447;-90
2021/10/04 09:25:13;223594.00;0.75;386.53;0.00;0.00;0.62;;;;;20.40;1.00;;;;;;2268112;61;938;-90
2021/10/04 09:27:43;916089.00;3.05;1584.40;71478.00;0.24;124.31;;;;;20.30;1.00;;;;;;2268050;61;2002;-90
2021/10/04 09:30:15;311388.00;1.04;537.50;0.00;0.00;0.62;;;;;20.30;1.00;;;;;;2268147;61;1123;-89
2021/10/04 09:32:44;237041.00;0.79;409.66;0.00;0.00;0.62;;;;;20.50;1.00;;;;;;2268719;61;1341;-90
2021/10/04 09:35:27;771724.00;2.57;1331.85;12282.00;0.04;21.90;;;;;20.20;1.00;;;;;;2268859;61;1145;-90
2021/10/04 09:38:13;1127270.00;3.76;1959.26;10210.00;0.03;18.31;;;;;20.30;1.00;;;;;;2268351;61;1119;-91
2021/10/04 09:40:41;602085.00;2.01;1037.82;78207.00;0.26;135.94;;;;;20.30;1.00;;;;;;2268582;61;1768;-90
2021/10/04 09:43:22;165837.00;0.55;287.10;0.00;0.00;0.62;;;;;20.10;1.00;;;;;;2268731;61;1146;-90
2021/10/04 09:45:59;412711.00;1.38;711.66;0.00;0.00;0.62;;;;;19.90;1.00;;;;;;2268825;61;1128;-90
2021/10/04 09:48:27;622508.00;2.08;1073.10;0.00;0.00;0.62;;;;;20.20;1.00;;;;;;2268726;61;1975;-89
2021/10/04 09:50:55;632074.00;2.11;1089.63;78719.00;0.26;136.82;;;;;20.60;1.00;;;;;;2268664;61;1280;-90
2021/10/04 09:53:22;489763.00;1.63;844.20;0.00;0.00;0.62;;;;;20.60;1.00;;;;;;2268651;61;1127;-90
2021/10/04 09:55:49;184247.00;0.61;318.80;0.00;0.00;0.62;;;;;20.20;1.00;;;;;;2268786;61;1027;-89
2021/10/04 09:58:20;912285.00;3.04;1577.71;56610.00;0.19;98.62;;;;;20.00;1.00;;;;;;2268739;61;923;-90
2021/10/04 10:00:51;371253.00;1.24;640.39;80652.00;0.27;140.16;;;;;19.90;1.00;;;;;;2268685;61;1447;-90
2021/10/04 10:03:19;313463.00;1.04;541.06;0.00;0.00;0.62;;;;;20.30;1.00;;;;;;2268774;61;1047;-90
2021/10/04 10:05:50;257119.00;0.86;444.19;0.00;0.00;0.62;;;;;20.40;1.00;;;;;;2268668;61;1015;-89
2021/10/04 10:08:19;454355.00;1.51;783.27;22656.00;0.08;39.87;;;;;20.50;1.00;;;;;;2268643;61;1919;-89
2021/10/04 10:10:48;1689863.00;5.63;3005.74;150665.00;0.50;260.95;;;;;20.70;1.00;;;;;;2268594;61;1250;-90
2021/10/04 10:13:17;772625.00;2.58;1333.42;103214.00;0.34;179.12;;;;;20.40;1.00;;;;;;2268731;61;1128;-90
2021/10/04 10:15:57;292554.00;0.98;505.12;8509.00;0.03;15.37;;;;;20.00;1.00;;;;;;2268758;61;991;-89
2021/10/04 10:18:28;294043.00;0.98;507.68;0.00;0.00;0.62;;;;;19.80;1.00;;;;;;2268684;61;1141;-90
2021/10/04 10:20:57;257264.00;0.86;444.44;0.00;0.00;0.62;;;;;20.20;1.00;;;;;;2268616;61;1435;-90
2021/10/04 10:23:44;493798.00;1.65;851.15;2145.00;0.01;4.34;;;;;19.90;1.00;;;;;;2268677;61;1082;-90
2021/10/04 10:26:26;1876378.00;6.25;3373.50;55859.00;0.19;97.32;;;;;19.80;1.00;;;;;;2268590;61;947;-89
2021/10/04 10:29:22;270375.00;0.90;466.99;11327.00;0.04;20.25;;;;;19.90;1.00;;;;;;2268245;61;1985;-89
2021/10/04 10:32:20;17085.00;0.06;30.22;0.00;0.00;0.62;;;;;19.90;1.00;;;;;;2268212;61;1388;-89
2021/10/04 10:34:57;244385.00;0.81;422.29;0.00;0.00;0.62;;;;;20.10;1.00;;;;;;2268581;61;1118;-90
2021/10/04 10:37:45;127168016.00;423.89;83321904.00;10662.00;0.04;19.10;;;;;19.80;1.00;;;;;;2268643;61;951;-89
2021/10/04 10:40:15;209965.00;0.70;363.08;0.00;0.00;0.62;;;;;19.70;1.00;;;;;;2264638;61;1069;-89
2021/10/04 10:42:59;928257.00;3.09;1605.80;69211.00;0.23;120.40;;;;;19.30;1.00;;;;;;2264437;61;1405;-90
2021/10/04 10:45:27;963413.00;3.21;1667.78;539.00;0.00;1.55;;;;;19.20;1.00;;;;;;2264496;61;1615;-91
2021/10/04 10:47:59;437203.00;1.46;753.77;59952.00;0.20;104.39;;;;;19.60;1.00;;;;;;2264181;61;1999;-89
2021/10/04 10:50:39;325509.00;1.09;561.77;0.00;0.00;0.62;;;;;19.40;1.00;;;;;;2264449;61;1109;-87
2021/10/04 10:53:10;363999.00;1.21;627.92;0.00;0.00;0.62;;;;;19.10;1.00;;;;;;2264396;61;1607;-89
2021/10/04 10:55:40;608241.00;2.03;1048.45;11411.00;0.04;20.39;;;;;19.20;1.00;;;;;;2264166;61;1140;-89
2021/10/04 10:58:12;524641.00;1.75;904.26;0.00;0.00;0.62;;;;;19.50;1.00;;;;;;2264109;61;1139;-90
2021/10/04 11:00:42;540456.00;1.80;931.51;2297.00;0.01;4.60;;;;;19.80;1.00;;;;;;2264345;61;1395;-89
2021/10/04 11:03:14;1126765.00;3.76;1958.36;77806.00;0.26;135.25;;;;;19.70;1.00;;;;;;2264450;61;984;-89
2021/10/04 11:06:05;546774.00;1.82;942.40;77772.00;0.26;135.19;;;;;19.50;1.00;;;;;;2264154;61;994;-89
2021/10/04 11:08:58;234655.00;0.78;405.56;0.00;0.00;0.62;;;;;19.40;1.00;;;;;;2255776;61;2010;-89
2021/10/04 11:11:30;442530.00;1.48;762.93;32406.00;0.11;56.75;;;;;19.80;1.00;;;;;;2255653;61;1373;-89
2021/10/04 11:14:16;130058.00;0.43;225.43;0.00;0.00;0.62;;;;;20.10;1.00;;;;;;2255776;61;1116;-89
2021/10/04 11:16:57;837882.00;2.79;1447.27;29006.00;0.10;50.86;;;;;20.10;1.00;;;;;;2255854;61;1038;-89
2021/10/04 11:19:31;857457.00;2.86;1481.52;4757.00;0.02;8.86;;;;;20.10;1.00;;;;;;2255910;61;1022;-90
2021/10/04 11:21:58;246338.00;0.82;425.65;0.00;0.00;0.62;;;;;20.30;1.00;;;;;;2255880;61;1439;-90
2021/10/04 11:24:26;695772.00;2.32;1199.91;124225.00;0.41;215.37;;;;;20.30;1.00;;;;;;2251752;61;1061;-90
2021/10/04 11:26:54;1040821.00;3.47;1804.91;22928.00;0.08;40.34;;;;;20.00;1.00;;;;;;2254242;61;1919;-90
2021/10/04 11:29:25;485025.00;1.62;836.05;73751.00;0.25;128.24;;;;;19.60;1.00;;;;;;2249031;61;983;-88
2021/10/04 11:31:53;337383.00;1.12;582.18;0.00;0.00;0.62;;;;;19.30;1.00;;;;;;2248831;61;1260;-89
2021/10/04 11:34:22;391563.00;1.31;675.30;0.00;0.00;0.62;;;;;19.70;1.00;;;;;;2255523;61;982;-91
2021/10/04 11:36:52;253160.00;0.84;437.39;0.00;0.00;0.62;;;;;19.70;1.00;;;;;;2255946;61;1021;-90
2021/10/04 11:39:22;238684.00;0.80;412.49;0.00;0.00;0.62;;;;;20.30;1.00;;;;;;2255881;61;1073;-90
2021/10/04 11:41:52;251736.00;0.84;434.94;0.00;0.00;0.62;;;;;21.00;1.00;;;;;;2257585;61;1411;-90
2021/10/04 11:44:22;238929.00;0.80;412.91;0.00;0.00;0.62;;;;;21.40;1.00;;;;;;2264358;61;979;-89
2021/10/04 11:46:51;352672.00;1.18;608.45;0.00;0.00;0.62;;;;;21.40;1.00;;;;;;2264314;61;1030;-91
2021/10/04 11:49:20;192025.00;0.64;332.19;0.00;0.00;0.62;;;;;21.30;1.00;;;;;;2264260;61;1922;-91
2021/10/04 11:51:52;425152.00;1.42;733.05;18907.00;0.06;33.38;;;;;20.70;1.00;;;;;;2264216;61;1762;-90
2021/10/04 11:54:42;229276.00;0.76;396.30;0.00;0.00;0.62;;;;;20.60;1.00;;;;;;2264284;61;1124;-90
2021/10/04 11:57:11;258089.00;0.86;445.86;0.00;0.00;0.62;;;;;20.60;1.00;;;;;;2264277;61;905;-91
2021/10/04 11:59:56;245738.00;0.82;424.62;0.00;0.00;0.62;;;;;20.80;1.00;;;;;;2264211;61;1355;-89
2021/10/04 12:02:26;224528.00;0.75;388.13;0.00;0.00;0.62;;;;;20.70;1.00;;;;;;2264101;61;1412;-90
2021/10/04 12:05:12;213425.00;0.71;369.03;0.00;0.00;0.62;;;;;21.10;1.00;;;;;;2264278;61;953;-90
2021/10/04 12:07:54;325284.00;1.08;561.38;32865.00;0.11;57.54;;;;;21.20;1.00;;;;;;2264204;61;1981;-89
2021/10/04 12:10:21;301398.00;1.00;520.32;0.00;0.00;0.62;;;;;21.40;1.00;;;;;;2264233;61;930;-90
2021/10/04 12:12:49;338233.00;1.13;583.64;0.00;0.00;0.62;;;;;21.50;1.00;;;;;;2264107;61;1276;-91
2021/10/04 12:15:16;117907504.00;393.03;66398452.00;0.00;0.00;0.62;;;;;21.30;1.00;;;;;;2251693;61;1043;-90
2021/10/04 12:17:44;439435.00;1.46;757.61;0.00;0.00;0.62;;;;;21.30;1.00;;;;;;2251771;61;1089;-89
2021/10/04 12:20:23;217332.00;0.72;375.75;0.00;0.00;0.62;;;;;21.20;1.00;;;;;;2251691;61;1373;-89
2021/10/04 12:22:51;309872.00;1.03;534.89;0.00;0.00;0.62;;;;;21.00;1.00;;;;;;2251673;61;1394;-89
2021/10/04 12:25:29;192258.00;0.64;332.60;0.00;0.00;0.62;;;;;20.70;1.00;;;;;;2251719;61;1050;-89
2021/10/04 12:28:04;360043.00;1.20;621.12;0.00;0.00;0.62;;;;;21.10;1.00;;;;;;2251583;61;1918;-90
2021/10/04 12:30:46;377121.00;1.26;650.48;0.00;0.00;0.62;;;;;21.20;1.00;;;;;;2251701;61;1590;-90
2021/10/04 12:33:13;288863.00;0.96;498.77;0.00;0.00;0.62;;;;;21.00;1.00;;;;;;2257344;61;1609;-90
2021/10/04 12:35:41;388510.00;1.30;670.05;0.00;0.00;0.62;;;;;20.70;1.00;;;;;;2264122;61;1722;-89
2021/10/04 12:38:11;307823.00;1.03;531.37;0.00;0.00;0.62;;;;;21.20;1.00;;;;;;2264153;61;1576;-90
2021/10/04 12:40:44;212943.00;0.71;368.20;0.00;0.00;0.62;;;;;21.20;1.00;;;;;;2264065;61;1752;-90
2021/10/04 12:43:15;326176.00;1.09;562.91;0.00;0.00;0.62;;;;;21.20;1.00;;;;;;2264167;61;1325;-90
2021/10/04 12:45:56;224522.00;0.75;388.12;0.00;0.00;0.62;;;;;20.80;1.00;;;;;;2264123;61;1158;-89
2021/10/04 12:48:25;212674.00;0.71;367.74;0.00;0.00;0.62;;;;;20.50;1.00;;;;;;2255577;61;2002;-90
2021/10/04 12:51:05;391628.00;1.31;675.41;41705.00;0.14;72.84;;;;;20.30;1.00;;;;;;2255635;61;1295;-89
2021/10/04 12:53:34;844338.00;2.81;1458.56;29580.00;0.10;51.86;;;;;20.40;1.00;;;;;;2255476;61;1456;-89
2021/10/04 12:56:03;1594465.00;5.31;2822.17;143043.00;0.48;247.82;;;;;20.90;1.00;;;;;;2255577;61;1562;-89
2021/10/04 12:58:33;541189.00;1.80;932.77;78638.00;0.26;136.68;;;;;21.20;1.00;;;;;;2255631;61;997;-90
2021/10/04 13:01:11;218263.00;0.73;377.35;0.00;0.00;0.62;;;;;21.40;1.00;;;;;;2255405;61;1396;-90
2021/10/04 13:03:56;249335.00;0.83;430.81;0.00;0.00;0.62;;;;;21.50;1.00;;;;;;2255701;61;1013;-89
2021/10/04 13:06:28;280849.00;0.94;485.00;0.00;0.00;0.62;;;;;21.00;1.00;;;;;;2259862;61;1031;-90
2021/10/04 13:08:57;492622.00;1.64;849.12;15982.00;0.05;28.31;;;;;21.10;1.00;;;;;;2264761;61;1908;-89
2021/10/04 13:11:25;874717.00;2.92;1511.76;92560.00;0.31;160.73;;;;;21.00;1.00;;;;;;2264709;61;1423;-90
2021/10/04 13:13:55;220936.00;0.74;381.95;0.00;0.00;0.62;;;;;21.40;1.00;;;;;;2264794;61;1021;-90
2021/10/04 13:16:23;279017.00;0.93;481.85;0.00;0.00;0.62;;;;;21.30;1.00;;;;;;2264781;61;1711;-89
2021/10/04 13:18:50;1250263.00;4.17;2181.36;16591.00;0.06;29.37;;;;;21.40;1.00;;;;;;2264814;61;1160;-90
2021/10/04 13:21:18;2610502.00;8.70;4962.53;274328.00;0.91;473.79;;;;;21.50;1.00;;;;;;2264738;61;1724;-90
2021/10/04 13:23:45;1142113.00;3.81;1985.90;173283.00;0.58;299.92;;;;;21.50;1.00;;;;;;2264680;61;1716;-89
2021/10/04 13:26:16;327189.00;1.09;564.65;0.00;0.00;0.62;;;;;21.40;1.00;;;;;;2264363;61;935;-88
2021/10/04 13:28:44;212641.00;0.71;367.68;0.00;0.00;0.62;;;;;21.20;1.00;;;;;;2264294;61;1918;-88
2021/10/04 13:31:14;272628.00;0.91;470.86;0.00;0.00;0.62;;;;;21.30;1.00;;;;;;2264315;61;1412;-88
2021/10/04 13:33:42;293744.00;0.98;507.17;25717.00;0.09;45.17;;;;;20.90;1.00;;;;;;2264241;61;1130;-88
2021/10/04 13:36:10;212471.00;0.71;367.39;0.00;0.00;0.62;;;;;20.70;1.00;;;;;;2264066;61;1182;-87
2021/10/04 13:38:38;158621.00;0.53;274.66;0.00;0.00;0.62;;;;;20.50;1.00;;;;;;2264326;61;1100;-88
2021/10/04 13:41:06;193997.00;0.65;335.59;0.00;0.00;0.62;;;;;20.80;1.00;;;;;;2264145;61;1385;-87
2021/10/04 13:43:36;260606.00;0.87;450.19;16362.00;0.05;28.97;;;;;20.70;1.00;;;;;;2264437;61;1083;-88
2021/10/04 13:46:04;135951.00;0.45;235.59;0.00;0.00;0.62;;;;;20.90;1.00;;;;;;2264644;61;1123;-87
2021/10/04 13:48:31;162423.00;0.54;281.21;0.00;0.00;0.62;;;;;21.00;1.00;;;;;;2264634;61;2005;-88
2021/10/04 13:50:59;190661.00;0.64;329.85;0.00;0.00;0.62;;;;;21.10;1.00;;;;;;2262786;61;1328;-88
2021/10/04 13:53:28;192277.00;0.64;332.63;0.00;0.00;0.62;;;;;20.50;1.00;;;;;;2264227;61;1139;-88
2021/10/04 13:55:57;183853.00;0.61;318.12;0.00;0.00;0.62;;;;;20.40;1.00;;;;;;2264276;61;1151;-88
2021/10/04 13:58:24;112541.00;0.38;195.21;0.00;0.00;0.62;;;;;20.20;1.00;;;;;;2263858;61;1166;-87
2021/10/04 14:00:53;307455.00;1.02;530.73;47735.00;0.16;83.27;;;;;20.20;1.00;;;;;;2263523;61;1314;-88
2021/10/04 14:03:20;111284.00;0.37;193.05;0.00;0.00;0.62;;;;;20.20;1.00;;;;;;2263669;61;1160;-86
2021/10/04 14:05:46;219573.00;0.73;379.61;0.00;0.00;0.62;;;;;20.00;1.00;;;;;;2264373;61;1140;-88
2021/10/04 14:08:13;210974.00;0.70;364.81;32742.00;0.11;57.33;;;;;20.00;1.00;;;;;;2263721;61;1923;-87
2021/10/04 14:10:40;217663.00;0.73;376.32;0.00;0.00;0.62;;;;;20.10;1.00;;;;;;2263461;61;1743;-88
2021/10/04 14:13:07;182407.00;0.61;315.63;0.00;0.00;0.62;;;;;19.90;1.00;;;;;;2264020;61;1246;-88
2021/10/04 14:15:34;141425.00;0.47;245.03;0.00;0.00;0.62;;;;;19.70;1.00;;;;;;2263697;61;1103;-88
2021/10/04 14:18:02;155301.00;0.52;268.94;0.00;0.00;0.62;;;;;19.70;1.00;;;;;;2263531;61;1073;-88
2021/10/04 14:20:30;132907.00;0.44;230.34;0.00;0.00;0.62;;;;;19.10;1.00;;;;;;2263645;61;1214;-88
2021/10/04 14:22:56;188681.00;0.63;326.44;9968.00;0.03;17.89;;;;;19.00;1.00;;;;;;2263126;61;1415;-87
2021/10/04 14:25:24;135066.00;0.45;234.06;0.00;0.00;0.62;;;;;18.90;1.00;;;;;;2262842;61;1147;-88
2021/10/04 14:27:51;156384.00;0.52;270.81;0.00;0.00;0.62;;;;;19.20;1.00;;;;;;2263255;61;2006;-88
2021/10/04 14:30:19;162583.00;0.54;281.49;0.00;0.00;0.62;;;;;19.40;1.00;;;;;;2262865;61;1136;-88
2021/10/04 14:32:47;398819.00;1.33;687.77;67254.00;0.22;117.02;;;;;19.40;1.00;;;;;;2263122;61;1254;-87
2021/10/04 14:35:18;309700.00;1.03;534.59;0.00;0.00;0.62;;;;;19.00;1.00;;;;;;2264037;61;1074;-87
2021/10/04 14:37:46;263296.00;0.88;454.82;27948.00;0.09;49.03;;;;;18.40;1.00;;;;;;2263951;61;1116;-87
2021/10/04 14:40:15;178912.00;0.60;309.62;0.00;0.00;0.62;;;;;18.10;1.00;;;;;;2263990;61;1093;-87
2021/10/04 14:42:43;292619.00;0.98;505.23;0.00;0.00;0.62;;;;;18.00;1.00;;;;;;2264464;61;1632;-88
2021/10/04 14:45:11;138083.00;0.46;239.27;0.00;0.00;0.62;;;;;18.30;1.00;;;;;;2264040;61;1139;-87
2021/10/04 14:47:37;287844.00;0.96;497.02;0.00;0.00;0.62;;;;;18.40;1.00;;;;;;2264473;61;1132;-87
2021/10/04 14:50:06;383797.00;1.28;661.95;0.00;0.00;0.62;;;;;18.30;1.00;;;;;;2264607;61;1931;-89
2021/10/04 14:52:35;329993.00;1.10;569.47;0.00;0.00;0.62;;;;;18.70;1.00;;;;;;2264695;61;1376;-88
2021/10/04 14:55:02;148453.00;0.49;257.14;0.00;0.00;0.62;;;;;18.40;1.00;;;;;;2254438;61;992;-90
2021/10/04 14:57:29;145878.00;0.49;252.70;0.00;0.00;0.62;;;;;18.80;1.00;;;;;;2264690;61;1004;-88
2021/10/04 14:59:56;211973.00;0.71;366.53;0.00;0.00;0.62;;;;;18.60;1.00;;;;;;2264715;61;1144;-89
2021/10/04 15:02:23;234045.00;0.78;404.51;0.00;0.00;0.62;;;;;18.20;1.00;;;;;;2252138;61;1299;-90
2021/10/04 15:04:49;142729.00;0.48;247.28;0.00;0.00;0.62;;;;;18.20;1.00;;;;;;2252172;61;1835;-89
2021/10/04 15:07:16;200445.00;0.67;346.69;0.00;0.00;0.62;;;;;18.30;1.00;;;;;;2252231;61;1042;-90
2021/10/04 15:09:45;208877.00;0.70;361.20;0.00;0.00;0.62;;;;;18.50;1.00;;;;;;2252130;61;1999;-89
2021/10/04 15:12:11;276559.00;0.92;477.62;0.00;0.00;0.62;;;;;18.80;1.00;;;;;;2252073;61;1394;-90
2021/10/04 15:14:38;264053.00;0.88;456.12;0.00;0.00;0.62;;;;;18.60;1.00;;;;;;2252200;61;1137;-89
2021/10/04 15:17:05;271476.00;0.90;468.88;0.00;0.00;0.62;;;;;18.60;1.00;;;;;;2252075;61;1132;-88
2021/10/04 15:19:32;151847.00;0.51;262.99;0.00;0.00;0.62;;;;;18.50;1.00;;;;;;2253500;61;970;-89
2021/10/04 15:21:59;250746.00;0.84;433.23;0.00;0.00;0.62;;;;;18.50;1.00;;;;;;2263045;61;1412;-89
2021/10/04 15:24:26;263276.00;0.88;454.78;0.00;0.00;0.62;;;;;18.80;1.00;;;;;;2264568;61;1142;-89
2021/10/04 15:26:54;211275.00;0.70;365.33;0.00;0.00;0.62;;;;;18.80;1.00;;;;;;2264533;61;1072;-90
2021/10/04 15:29:21;169592.00;0.57;293.56;0.00;0.00;0.62;;;;;19.00;1.00;;;;;;2264413;61;1914;-89
2021/10/04 15:31:48;173186.00;0.58;299.75;0.00;0.00;0.62;;;;;19.10;1.00;;;;;;2264465;61;1295;-89
2021/10/04 15:34:15;309993.00;1.03;535.10;28095.00;0.09;49.29;;;;;19.10;1.00;;;;;;2264479;61;1083;-88
2021/10/04 15:36:43;217530.00;0.73;376.09;0.00;0.00;0.62;;;;;19.00;1.00;;;;;;2264436;61;1136;-88
2021/10/04 15:39:09;310669.00;1.04;536.26;0.00;0.00;0.62;;;;;18.90;1.00;;;;;;2264475;61;1048;-88
2021/10/04 15:41:36;283089.00;0.94;488.85;29895.00;0.10;52.40;;;;;19.00;1.00;;;;;;2264427;61;1412;-89
2021/10/04 15:44:05;176491.00;0.59;305.45;0.00;0.00;0.62;;;;;18.80;1.00;;;;;;2264389;61;1115;-88
2021/10/04 15:46:32;170158.00;0.57;294.54;0.00;0.00;0.62;;;;;18.30;1.00;;;;;;2264436;61;1755;-88
2021/10/04 15:48:59;206318.00;0.69;356.80;0.00;0.00;0.62;;;;;17.60;1.00;;;;;;2262989;61;2002;-89
2021/10/04 15:51:26;251873.00;0.84;435.17;0.00;0.00;0.62;;;;;17.70;1.00;;;;;;2264395;61;1290;-88
2021/10/04 15:53:53;218825.00;0.73;378.32;0.00;0.00;0.62;;;;;17.60;1.00;;;;;;2264445;61;910;-89
2021/10/04 15:56:20;478437.00;1.59;824.71;16646.00;0.06;29.46;;;;;17.90;1.00;;;;;;2264269;61;1746;-88
2021/10/04 15:58:48;255243.00;0.85;440.97;0.00;0.00;0.62;;;;;17.80;1.00;;;;;;2264292;61;1749;-88
2021/10/04 16:01:17;283780.00;0.95;490.04;0.00;0.00;0.62;;;;;17.70;1.00;;;;;;2264467;61;1370;-89
2021/10/04 16:03:44;282016.00;0.94;487.00;0.00;0.00;0.62;;;;;17.60;1.00;;;;;;2264419;61;1175;-88
2021/10/04 16:06:11;177353.00;0.59;306.93;0.00;0.00;0.62;;;;;17.60;1.00;;;;;;2264443;61;1017;-89
2021/10/04 16:08:42;230212.00;0.77;397.91;0.00;0.00;0.62;;;;;17.50;1.00;;;;;;2264280;61;1989;-89
2021/10/04 16:11:10;199774.00;0.67;345.53;0.00;0.00;0.62;;;;;17.10;1.00;;;;;;2264371;61;1478;-89
2021/10/04 16:13:37;243195.00;0.81;420.25;0.00;0.00;0.62;;;;;17.20;1.00;;;;;;2264378;61;1067;-88
2021/10/04 16:16:06;246927.00;0.82;426.67;0.00;0.00;0.62;;;;;17.40;1.00;;;;;;2264379;61;1020;-89
2021/10/04 16:18:35;209017.00;0.70;361.44;0.00;0.00;0.62;;;;;17.40;1.00;;;;;;2264296;61;1275;-88
2021/10/04 16:21:02;290414.00;0.97;501.44;0.00;0.00;0.62;;;;;17.80;1.00;;;;;;2264322;61;1403;-88
2021/10/04 16:23:29;355772.00;1.19;613.78;0.00;0.00;0.62;;;;;18.20;1.00;;;;;;2264380;61;1155;-89
2021/10/04 16:25:56;299663.00;1.00;517.34;0.00;0.00;0.62;;;;;18.30;1.00;;;;;;2264304;61;1120;-88
2021/10/04 16:28:23;212819.00;0.71;367.99;0.00;0.00;0.62;;;;;18.10;1.00;;;;;;2264402;61;993;-88
2021/10/04 16:30:50;277851.00;0.93;479.84;0.00;0.00;0.62;;;;;17.80;1.00;;;;;;2264365;61;1952;-88
2021/10/04 16:33:20;304678.00;1.02;525.96;0.00;0.00;0.62;;;;;17.50;1.00;;;;;;2264309;61;1090;-89
2021/10/04 16:35:49;102150.00;0.34;177.28;0.00;0.00;0.62;;;;;17.40;1.00;;;;;;2264394;61;1079;-89
2021/10/04 16:38:16;189154.00;0.63;327.25;0.00;0.00;0.62;;;;;17.10;1.20;;;;;;2264203;61;1108;-88
2021/10/04 16:40:44;368699.00;1.23;636.00;0.00;0.00;0.62;;;;;17.10;1.70;;;;;;2264048;61;1312;-88
2021/10/04 16:43:11;247891.00;0.83;428.32;0.00;0.00;0.62;;;;;16.90;1.80;;;;;;2264319;61;1138;-89
2021/10/04 16:45:37;235561.00;0.79;407.12;0.00;0.00;0.62;;;;;16.80;3.60;;;;;;2264221;61;1612;-89